Time;durP1;ratioP1;P1;durP2;ratioP2;P2;SDS_P1;SDS_P2;PMS_P1;PMS_P2;Temp;Humidity;BMP_temperature;BMP_pressure;BME280_temperature;BME280_humidity;BME280_pressure;Samples;Min_cycle;Max_cycle;Signal;HPM_P1;HPM_P2
2022/07/08 00:00:21;;;;;;;;;;;;;;;14.91;71.71;97099.34;6273247;28;19925;-64
2022/07/08 00:03:24;;;;;;;;;;;;;;;14.90;71.81;97100.31;6272154;28;19928;-64
2022/07/08 00:06:27;;;;;;;;;;;;;;;14.91;71.79;97104.66;6273183;28;19925;-67
2022/07/08 00:09:30;;;;;;;;;;;;;;;14.99;71.77;97096.94;6273212;28;19931;-65
2022/07/08 00:12:34;;;;;;;;;;;;;;;15.30;71.76;97102.47;6273030;28;19925;-64
2022/07/08 00:15:38;;;;;;;;;;;;;;;15.23;71.39;97097.66;6255320;28;19924;-64
2022/07/08 00:18:41;;;;;;;;;;;;;;;15.23;71.37;97094.16;6272838;28;19924;-65
2022/07/08 00:21:45;;;;;;;;;;;;;;;15.19;71.10;97098.84;6272769;28;19935;-64
2022/07/08 00:24:49;;;;;;;;;;;;;;;15.17;71.10;97100.81;6272648;28;19921;-65
2022/07/08 00:27:53;;;;;;;;;;;;;;;15.18;71.08;97112.25;6272786;28;19925;-64
2022/07/08 00:30:57;;;;;;;;;;;;;;;15.19;71.17;97112.09;6272574;28;19920;-64
2022/07/08 00:34:01;;;;;;;;;;;;;;;15.27;71.37;97109.69;6272252;28;19924;-64
2022/07/08 00:37:08;;;;;;;;;;;;;;;15.27;71.04;97117.63;6271657;28;19925;-64
2022/07/08 00:40:11;;;;;;;;;;;;;;;15.33;70.95;97120.78;6270999;28;19924;-64
2022/07/08 00:43:34;;;;;;;;;;;;;;;15.39;70.70;97115.81;6272228;28;19929;-64
2022/07/08 00:46:38;;;;;;;;;;;;;;;15.42;70.49;97120.03;6272207;28;19929;-64
2022/07/08 00:49:42;;;;;;;;;;;;;;;15.41;70.76;97118.34;6272199;28;19925;-65
2022/07/08 00:52:46;;;;;;;;;;;;;;;15.44;70.76;97118.09;6272028;28;19924;-65
2022/07/08 00:55:49;;;;;;;;;;;;;;;15.53;70.33;97116.50;6292456;28;20393;-65
2022/07/08 00:58:52;;;;;;;;;;;;;;;15.67;70.19;97130.31;6296580;28;20309;-64
2022/07/08 01:01:57;;;;;;;;;;;;;;;15.70;69.94;97130.09;6279100;28;20390;-65
2022/07/08 01:05:00;;;;;;;;;;;;;;;15.78;69.72;97123.34;6296641;28;19924;-65
2022/07/08 01:08:06;;;;;;;;;;;;;;;15.84;69.58;97130.81;6296475;28;20301;-65
2022/07/08 01:11:11;;;;;;;;;;;;;;;15.90;69.48;97124.97;6296437;28;20274;-64
2022/07/08 01:14:15;;;;;;;;;;;;;;;15.94;69.28;97129.09;6278363;28;19928;-65
2022/07/08 01:17:18;;;;;;;;;;;;;;;15.99;69.12;97124.22;6296162;28;19935;-64
2022/07/08 01:20:21;;;;;;;;;;;;;;;16.03;69.06;97125.66;6295185;28;20019;-65
2022/07/08 01:23:24;;;;;;;;;;;;;;;16.08;69.10;97131.44;6296195;28;19924;-65
2022/07/08 01:26:28;;;;;;;;;;;;;;;16.19;68.61;97140.31;6296265;28;19925;-65
2022/07/08 01:29:33;;;;;;;;;;;;;;;16.31;68.60;97137.47;6296242;28;19924;-65
2022/07/08 01:32:37;;;;;;;;;;;;;;;16.41;68.37;97134.88;6295836;28;20390;-65
2022/07/08 01:35:41;;;;;;;;;;;;;;;16.51;68.00;97140.28;6295936;28;19924;-64
2022/07/08 01:38:44;;;;;;;;;;;;;;;16.64;67.95;97138.25;6295778;28;19925;-64
2022/07/08 01:41:48;;;;;;;;;;;;;;;16.71;67.88;97141.25;6296063;28;19925;-65
2022/07/08 01:44:52;;;;;;;;;;;;;;;16.81;67.57;97144.81;6295972;28;19928;-64
2022/07/08 01:47:56;;;;;;;;;;;;;;;16.90;67.33;97144.03;6295680;28;20412;-64
2022/07/08 01:51:00;;;;;;;;;;;;;;;17.03;66.91;97141.97;6295664;28;20023;-65
2022/07/08 01:54:03;;;;;;;;;;;;;;;17.08;66.80;97154.06;6295679;28;19920;-64
2022/07/08 01:57:15;;;;;;;;;;;;;;;17.10;66.71;97152.06;6295558;28;19924;-64
2022/07/08 02:00:18;;;;;;;;;;;;;;;17.24;66.31;97154.41;6295770;28;20404;-64
2022/07/08 02:03:21;;;;;;;;;;;;;;;17.27;66.30;97154.97;6295497;28;19920;-65
2022/07/08 02:06:24;;;;;;;;;;;;;;;17.33;66.13;97158.91;6295599;28;19925;-65
2022/07/08 02:09:27;;;;;;;;;;;;;;;17.36;65.99;97163.97;6295279;28;19920;-65
2022/07/08 02:12:31;;;;;;;;;;;;;;;17.47;65.81;97171.84;6295254;28;20413;-65
2022/07/08 02:15:35;;;;;;;;;;;;;;;17.54;65.59;97177.44;6295414;28;19924;-64
2022/07/08 02:18:39;;;;;;;;;;;;;;;17.60;65.72;97170.75;6295249;28;19924;-64
2022/07/08 02:21:42;;;;;;;;;;;;;;;17.68;65.41;97168.25;6295669;28;20301;-65
2022/07/08 02:24:47;;;;;;;;;;;;;;;17.69;65.05;97176.09;6295183;28;20386;-65
2022/07/08 02:27:51;;;;;;;;;;;;;;;17.73;64.84;97174.00;6295028;28;19924;-65
2022/07/08 02:30:54;;;;;;;;;;;;;;;17.74;64.83;97173.03;6295156;28;19924;-65
2022/07/08 02:33:56;;;;;;;;;;;;;;;17.86;64.89;97171.97;6294648;28;19925;-65
2022/07/08 02:36:57;;;;;;;;;;;;;;;17.91;64.60;97175.03;6294649;28;19931;-65
2022/07/08 02:40:01;;;;;;;;;;;;;;;17.98;64.60;97169.19;6295315;28;19925;-64
2022/07/08 02:43:09;;;;;;;;;;;;;;;18.07;64.23;97179.84;6295237;28;19920;-63
2022/07/08 02:46:11;;;;;;;;;;;;;;;18.28;63.86;97177.03;6294688;28;19925;-65
2022/07/08 02:49:15;;;;;;;;;;;;;;;18.28;64.01;97179.69;6294536;28;19986;-66
2022/07/08 02:52:16;;;;;;;;;;;;;;;18.32;63.83;97175.78;6294182;28;20016;-66
2022/07/08 02:55:17;;;;;;;;;;;;;;;18.39;63.85;97178.72;6294427;28;20451;-64
2022/07/08 02:58:19;;;;;;;;;;;;;;;18.51;63.84;97177.63;6294055;28;19925;-65
2022/07/08 03:01:23;;;;;;;;;;;;;;;18.61;63.51;97177.59;6298369;28;19924;-65
2022/07/08 03:04:25;;;;;;;;;;;;;;;18.65;63.26;97178.97;6298756;28;19947;-65
2022/07/08 03:07:26;;;;;;;;;;;;;;;18.72;63.32;97185.44;6299207;28;19928;-65
2022/07/08 03:10:28;;;;;;;;;;;;;;;18.88;63.09;97179.56;6298259;28;19925;-65
2022/07/08 03:13:31;;;;;;;;;;;;;;;18.97;62.49;97183.19;6299218;28;20438;-65
2022/07/08 03:16:33;;;;;;;;;;;;;;;19.04;62.61;97178.94;6298756;28;19924;-65
2022/07/08 03:19:36;;;;;;;;;;;;;;;19.13;62.33;97183.38;6298849;28;20386;-64
2022/07/08 03:22:40;;;;;;;;;;;;;;;19.31;62.21;97179.97;6298684;28;20007;-65
2022/07/08 03:25:41;;;;;;;;;;;;;;;19.36;61.82;97188.38;6298620;28;19924;-65
2022/07/08 03:28:44;;;;;;;;;;;;;;;19.42;61.62;97185.09;6298813;28;20389;-65
2022/07/08 03:31:48;;;;;;;;;;;;;;;19.52;61.59;97189.41;6298760;28;20066;-65
2022/07/08 03:34:55;;;;;;;;;;;;;;;19.68;61.26;97193.31;6297847;28;20214;-65
2022/07/08 03:37:58;;;;;;;;;;;;;;;19.78;60.90;97193.25;6298206;28;19924;-64
2022/07/08 03:44:26;;;;;;;;;;;;;;;20.01;60.44;97193.69;6298381;28;20113;-65
2022/07/08 03:47:33;;;;;;;;;;;;;;;20.13;60.21;97197.84;6297614;28;19924;-65
2022/07/08 03:50:34;;;;;;;;;;;;;;;20.31;59.96;97195.16;6297507;28;20018;-64
2022/07/08 03:53:37;;;;;;;;;;;;;;;20.48;59.50;97191.66;6298169;28;19986;-64
2022/07/08 03:56:41;;;;;;;;;;;;;;;20.60;59.31;97194.94;6297377;28;19932;-64
2022/07/08 03:59:42;;;;;;;;;;;;;;;20.71;59.24;97196.53;6297659;28;19924;-64
2022/07/08 04:02:46;;;;;;;;;;;;;;;20.89;59.09;97192.03;6297439;28;20390;-64
2022/07/08 04:05:50;;;;;;;;;;;;;;;20.98;58.46;97199.09;6297844;28;20394;-64
2022/07/08 04:08:51;;;;;;;;;;;;;;;21.06;58.46;97191.13;6297146;28;19932;-65
2022/07/08 04:11:53;;;;;;;;;;;;;;;21.20;58.12;97196.88;6296597;28;20386;-64
2022/07/08 04:14:54;;;;;;;;;;;;;;;21.32;57.88;97198.31;6297149;28;19924;-64
2022/07/08 04:17:55;;;;;;;;;;;;;;;21.44;57.68;97199.72;6297309;28;19924;-65
2022/07/08 04:20:56;;;;;;;;;;;;;;;21.59;57.38;97199.13;6297067;28;19924;-65
2022/07/08 04:24:00;;;;;;;;;;;;;;;21.78;56.92;97196.19;6297430;28;19924;-65
2022/07/08 04:27:01;;;;;;;;;;;;;;;21.99;56.26;97193.06;6297051;28;19935;-65
2022/07/08 04:30:03;;;;;;;;;;;;;;;22.16;55.86;97197.47;6296981;28;19925;-64
2022/07/08 04:33:08;;;;;;;;;;;;;;;22.30;55.65;97196.03;6296997;28;20405;-65
2022/07/08 04:36:12;;;;;;;;;;;;;;;22.45;55.09;97204.28;6297290;28;19924;-65
2022/07/08 04:39:14;;;;;;;;;;;;;;;22.58;55.03;97198.41;6296547;28;19959;-65
2022/07/08 04:42:15;;;;;;;;;;;;;;;22.72;54.10;97187.00;6296726;28;19954;-65
2022/07/08 04:45:18;;;;;;;;;;;;;;;22.83;54.09;97194.72;6296785;28;19920;-65
2022/07/08 04:48:22;;;;;;;;;;;;;;;23.52;52.54;97197.81;6296222;28;19924;-66
2022/07/08 04:51:23;;;;;;;;;;;;;;;25.81;47.24;97200.63;6296240;28;19943;-65
2022/07/08 04:54:24;;;;;;;;;;;;;;;28.56;42.41;97201.63;6296121;28;19929;-65
2022/07/08 04:57:25;;;;;;;;;;;;;;;31.13;38.63;97213.00;6295887;28;19930;-65
2022/07/08 05:00:28;;;;;;;;;;;;;;;33.56;34.89;97210.34;6296154;28;20344;-65
2022/07/08 05:03:29;;;;;;;;;;;;;;;35.39;32.58;97211.47;6295765;28;20027;-64
2022/07/08 05:06:30;;;;;;;;;;;;;;;34.81;33.69;97213.47;6295477;28;19931;-65
2022/07/08 05:09:31;;;;;;;;;;;;;;;36.02;32.30;97203.91;6295588;28;19924;-64
2022/07/08 05:12:34;;;;;;;;;;;;;;;36.71;30.58;97217.06;6295597;28;19925;-65
2022/07/08 05:15:38;;;;;;;;;;;;;;;38.49;28.46;97209.28;6296014;28;19928;-64
2022/07/08 05:18:40;;;;;;;;;;;;;;;38.17;25.99;97209.41;6295577;28;19924;-65
2022/07/08 05:21:41;;;;;;;;;;;;;;;35.22;30.17;97195.91;6295844;28;19931;-65
2022/07/08 05:24:45;;;;;;;;;;;;;;;32.67;32.74;97201.25;6295746;28;20389;-65
2022/07/08 05:27:48;;;;;;;;;;;;;;;31.37;34.25;97196.94;6296124;28;20345;-66
2022/07/08 05:30:52;;;;;;;;;;;;;;;31.36;33.81;97201.53;6295125;28;19924;-65
2022/07/08 05:33:57;;;;;;;;;;;;;;;34.32;30.08;97197.53;6295635;28;19987;-65
2022/07/08 05:36:58;;;;;;;;;;;;;;;34.26;29.51;97190.31;6295685;28;20345;-66
2022/07/08 05:40:02;;;;;;;;;;;;;;;32.80;31.65;97196.44;6295593;28;19940;-66
2022/07/08 05:43:07;;;;;;;;;;;;;;;31.94;32.19;97186.72;6293999;28;19951;-66
2022/07/08 05:46:11;;;;;;;;;;;;;;;32.29;31.14;97188.78;6295575;28;19924;-66
2022/07/08 05:49:14;;;;;;;;;;;;;;;36.80;26.33;97199.06;6294077;28;19925;-65
2022/07/08 05:52:18;;;;;;;;;;;;;;;38.59;24.79;97201.06;6295338;28;19928;-65
2022/07/08 05:55:20;;;;;;;;;;;;;;;37.35;26.67;97195.16;6294878;28;20005;-65
2022/07/08 05:58:21;;;;;;;;;;;;;;;37.52;26.08;97201.34;6295228;28;20296;-65
2022/07/08 06:01:23;;;;;;;;;;;;;;;40.55;23.50;97200.53;6295175;28;20317;-66
2022/07/08 06:04:28;;;;;;;;;;;;;;;42.36;20.33;97188.44;6295194;28;20285;-65
2022/07/08 06:07:33;;;;;;;;;;;;;;;43.13;19.87;97190.06;6294996;28;19925;-64
2022/07/08 06:10:34;;;;;;;;;;;;;;;42.42;20.20;97188.38;6294684;28;19928;-66
2022/07/08 06:13:36;;;;;;;;;;;;;;;39.17;23.15;97181.59;6294524;28;19924;-64
2022/07/08 06:16:40;;;;;;;;;;;;;;;39.38;22.69;97178.84;6295256;28;20021;-64
2022/07/08 06:19:45;;;;;;;;;;;;;;;38.07;22.88;97173.66;6295198;28;19920;-65
2022/07/08 06:22:50;;;;;;;;;;;;;;;35.75;26.19;97167.16;6295127;28;19921;-66
2022/07/08 06:25:53;;;;;;;;;;;;;;;35.97;23.98;97164.41;6295081;28;19924;-65
2022/07/08 06:28:57;;;;;;;;;;;;;;;39.37;21.67;97163.44;6294715;28;19925;-65
2022/07/08 06:32:00;;;;;;;;;;;;;;;43.51;17.38;97181.66;6295115;28;19925;-66
2022/07/08 06:35:04;;;;;;;;;;;;;;;47.02;15.17;97189.03;6296661;28;19924;-65
2022/07/08 06:38:10;;;;;;;;;;;;;;;49.17;12.65;97190.34;6299791;28;19924;-64
2022/07/08 06:41:11;;;;;;;;;;;;;;;51.08;11.27;97187.06;6298937;28;20062;-64
2022/07/08 06:44:16;;;;;;;;;;;;;;;50.23;13.37;97180.44;6299576;28;19978;-64
2022/07/08 06:47:22;;;;;;;;;;;;;;;49.03;13.87;97177.84;6299365;28;20443;-65
2022/07/08 06:50:25;;;;;;;;;;;;;;;50.97;13.50;97180.31;6299110;28;20022;-65
2022/07/08 06:54:34;;;;;;;;;;;;;;;52.44;12.80;97179.41;6298785;28;20009;-66
2022/07/08 06:56:52;;;;;;;;;;;;;;;53.63;11.29;97182.66;6298967;28;19931;-65
2022/07/08 06:59:53;;;;;;;;;;;;;;;51.07;12.14;97168.59;6298290;28;19938;-65
2022/07/08 07:02:55;;;;;;;;;;;;;;;49.47;13.29;97170.66;6299143;28;20393;-65
2022/07/08 07:06:02;;;;;;;;;;;;;;;47.10;15.55;97154.00;6298961;28;19924;-66
2022/07/08 07:09:07;;;;;;;;;;;;;;;44.12;16.80;97144.47;6299128;28;19931;-65
2022/07/08 07:12:09;;;;;;;;;;;;;;;43.10;15.68;97135.28;6298215;28;19986;-64
2022/07/08 07:15:15;;;;;;;;;;;;;;;46.07;15.32;97140.47;6298951;28;19943;-65
2022/07/08 07:18:18;;;;;;;;;;;;;;;48.42;13.63;97148.41;6298772;28;19924;-65
2022/07/08 07:21:22;;;;;;;;;;;;;;;49.19;12.99;97156.47;6298286;28;20078;-65
2022/07/08 07:24:27;;;;;;;;;;;;;;;47.95;13.13;97156.06;6297665;28;19924;-65
2022/07/08 07:27:31;;;;;;;;;;;;;;;48.89;11.33;97142.63;6298740;28;19924;-65
2022/07/08 07:30:34;;;;;;;;;;;;;;;51.32;11.60;97146.06;6298533;28;19924;-65
2022/07/08 07:33:39;;;;;;;;;;;;;;;53.40;10.48;97158.13;6297935;28;20009;-64
2022/07/08 07:36:42;;;;;;;;;;;;;;;54.77;9.91;97178.03;6298359;28;19930;-65
2022/07/08 07:39:48;;;;;;;;;;;;;;;52.75;10.70;97160.81;6298445;28;20394;-64
2022/07/08 07:42:52;;;;;;;;;;;;;;;48.25;13.28;97137.38;6297602;28;20404;-64
2022/07/08 07:46:03;;;;;;;;;;;;;;;44.24;16.25;97129.25;6298174;28;20023;-64
2022/07/08 07:49:06;;;;;;;;;;;;;;;41.43;17.55;97121.47;6297785;28;19928;-65
2022/07/08 07:52:09;;;;;;;;;;;;;;;39.43;19.50;97112.75;6298241;28;20341;-65
2022/07/08 07:55:13;;;;;;;;;;;;;;;38.62;19.95;97106.19;6296957;28;19928;-65
2022/07/08 07:58:17;;;;;;;;;;;;;;;38.06;19.74;97084.09;6297876;28;20382;-65
2022/07/08 08:01:18;;;;;;;;;;;;;;;37.57;20.31;97089.91;6297110;28;19924;-66
2022/07/08 08:04:19;;;;;;;;;;;;;;;36.70;21.12;97084.66;6297262;28;20012;-64
2022/07/08 08:07:20;;;;;;;;;;;;;;;37.48;20.84;97082.22;6297228;28;20011;-65
2022/07/08 08:10:25;;;;;;;;;;;;;;;40.72;17.40;97094.53;6297092;28;19987;-65
2022/07/08 08:13:30;;;;;;;;;;;;;;;44.77;14.41;97103.66;6297575;28;19947;-65
2022/07/08 08:16:33;;;;;;;;;;;;;;;48.52;12.60;97113.69;6297659;28;19924;-65
2022/07/08 08:19:38;;;;;;;;;;;;;;;51.03;10.86;97117.25;6297540;28;20305;-66
2022/07/08 08:22:41;;;;;;;;;;;;;;;52.33;9.91;97116.53;6296782;28;20428;-64
2022/07/08 08:25:44;;;;;;;;;;;;;;;53.57;9.77;97125.06;6279042;28;19931;-64
2022/07/08 08:28:50;;;;;;;;;;;;;;;53.97;9.18;97123.72;6297125;28;19924;-65
2022/07/08 08:31:52;;;;;;;;;;;;;;;53.70;9.35;97111.63;6296982;28;20013;-66
2022/07/08 08:34:56;;;;;;;;;;;;;;;51.06;10.59;97104.50;6296938;28;19924;-65
2022/07/08 08:37:57;;;;;;;;;;;;;;;46.62;12.69;97088.97;6296476;28;19924;-65
2022/07/08 08:40:59;;;;;;;;;;;;;;;43.13;15.08;97076.53;6296294;28;19925;-64
2022/07/08 08:44:04;;;;;;;;;;;;;;;40.99;16.75;97072.78;6296732;28;20020;-66
2022/07/08 08:47:09;;;;;;;;;;;;;;;39.58;17.88;97060.41;6296857;28;19924;-65
2022/07/08 08:53:37;;;;;;;;;;;;;;;40.07;17.23;97048.63;6296274;28;19924;-65
2022/07/08 08:56:45;;;;;;;;;;;;;;;42.05;15.28;97054.47;6296629;28;20029;-64
2022/07/08 08:59:46;;;;;;;;;;;;;;;44.10;14.12;97066.31;6295945;28;19924;-65
2022/07/08 09:02:49;;;;;;;;;;;;;;;45.94;12.96;97065.50;6296622;28;19924;-65
2022/07/08 09:05:51;;;;;;;;;;;;;;;45.38;13.10;97065.97;6296125;28;20444;-64
2022/07/08 09:08:55;;;;;;;;;;;;;;;45.39;13.62;97066.78;6296413;28;19924;-64
2022/07/08 09:12:15;;;;;;;;;;;;;;;45.35;13.30;97052.69;6296053;28;19924;-64
2022/07/08 09:15:28;;;;;;;;;;;;;;;46.26;12.56;97048.38;6295885;28;19924;-64
2022/07/08 09:18:34;;;;;;;;;;;;;;;47.85;11.88;97056.88;6295581;28;19956;-65
2022/07/08 09:21:38;;;;;;;;;;;;;;;49.82;10.57;97059.19;6295836;28;19931;-65
2022/07/08 09:24:44;;;;;;;;;;;;;;;49.12;10.73;97052.81;6295794;28;20067;-66
2022/07/08 09:27:45;;;;;;;;;;;;;;;47.51;11.26;97047.50;6295751;28;19935;-64
2022/07/08 09:30:54;;;;;;;;;;;;;;;46.33;11.94;97048.72;6295854;28;19982;-64
2022/07/08 09:33:55;;;;;;;;;;;;;;;43.10;14.44;97034.81;6294998;28;20469;-65
2022/07/08 09:36:58;;;;;;;;;;;;;;;40.67;15.59;97025.63;6296055;28;20022;-66
2022/07/08 09:40:02;;;;;;;;;;;;;;;41.77;15.29;97017.53;6295780;28;19931;-65
2022/07/08 09:43:12;;;;;;;;;;;;;;;44.90;12.62;97030.59;6295560;28;19998;-65
2022/07/08 09:46:16;;;;;;;;;;;;;;;46.89;11.54;97031.31;6295246;28;19931;-66
2022/07/08 09:49:27;;;;;;;;;;;;;;;47.89;11.08;97035.50;6294120;28;19928;-65
2022/07/08 09:52:33;;;;;;;;;;;;;;;49.02;10.14;97042.09;6295768;28;19925;-65
2022/07/08 09:55:37;;;;;;;;;;;;;;;50.27;9.92;97044.19;6295666;28;19940;-66
2022/07/08 09:58:41;;;;;;;;;;;;;;;51.30;9.36;97047.47;6294640;28;19924;-64
2022/07/08 10:01:47;;;;;;;;;;;;;;;51.78;8.66;97037.91;6294967;28;19970;-64
2022/07/08 10:04:51;;;;;;;;;;;;;;;51.49;9.63;97041.16;6295058;28;20378;-64
2022/07/08 10:07:54;;;;;;;;;;;;;;;50.57;9.73;97038.28;6295289;28;19931;-64
2022/07/08 10:10:58;;;;;;;;;;;;;;;50.16;10.03;97020.69;6299086;28;19924;-65
2022/07/08 10:14:01;;;;;;;;;;;;;;;50.33;9.96;97023.22;6300653;28;19924;-65
2022/07/08 10:17:06;;;;;;;;;;;;;;;50.33;9.36;97025.19;6300348;28;19924;-65
2022/07/08 10:20:12;;;;;;;;;;;;;;;48.05;11.01;97014.22;6300125;28;19924;-65
2022/07/08 10:23:19;;;;;;;;;;;;;;;47.13;11.67;97014.03;6300213;28;20314;-65
2022/07/08 10:26:32;;;;;;;;;;;;;;;48.06;10.93;97015.84;6299809;28;20305;-65
2022/07/08 10:29:39;;;;;;;;;;;;;;;47.82;10.52;97007.34;6300022;28;19925;-65
2022/07/08 10:32:47;;;;;;;;;;;;;;;47.28;11.42;97007.09;6299522;28;19925;-66
2022/07/08 10:35:58;;;;;;;;;;;;;;;45.55;12.51;97003.25;6300099;28;19925;-66
2022/07/08 10:39:04;;;;;;;;;;;;;;;42.94;14.50;96998.28;6299923;28;19924;-65
2022/07/08 10:42:10;;;;;;;;;;;;;;;40.40;16.43;96993.84;6299988;28;19924;-65
2022/07/08 10:45:17;;;;;;;;;;;;;;;38.49;18.31;96985.78;6299835;28;19925;-65
2022/07/08 10:48:20;;;;;;;;;;;;;;;38.51;18.26;96992.66;6299832;28;19947;-66
2022/07/08 10:51:29;;;;;;;;;;;;;;;38.85;17.91;96987.38;6299241;28;20314;-66
2022/07/08 10:54:42;;;;;;;;;;;;;;;39.43;17.45;96986.13;6299767;28;19925;-66
2022/07/08 10:57:55;;;;;;;;;;;;;;;40.44;16.47;96983.88;6299543;28;19924;-64
2022/07/08 11:01:17;;;;;;;;;;;;;;;39.72;16.90;96983.50;6299447;28;19924;-66
2022/07/08 11:04:36;;;;;;;;;;;;;;;37.42;19.06;96970.69;6299345;28;19924;-66
2022/07/08 11:07:39;;;;;;;;;;;;;;;36.12;20.28;96965.72;6298917;28;19924;-65
2022/07/08 11:10:43;;;;;;;;;;;;;;;36.90;19.21;96963.31;6298890;28;19924;-65
2022/07/08 11:13:49;;;;;;;;;;;;;;;36.81;19.28;96960.25;6298742;28;19924;-65
2022/07/08 11:16:53;;;;;;;;;;;;;;;36.36;20.10;96960.75;6299092;28;19947;-65
2022/07/08 11:19:58;;;;;;;;;;;;;;;36.42;19.77;96956.94;6298066;28;19928;-64
2022/07/08 11:23:06;;;;;;;;;;;;;;;36.89;19.43;96955.34;6298790;28;19924;-65
2022/07/08 11:26:10;;;;;;;;;;;;;;;38.05;18.41;96967.03;6280460;28;19986;-65
2022/07/08 11:29:16;;;;;;;;;;;;;;;38.89;18.20;96970.34;6298619;28;20390;-65
2022/07/08 11:32:20;;;;;;;;;;;;;;;39.59;17.50;96979.44;6298329;28;19925;-65
2022/07/08 11:35:23;;;;;;;;;;;;;;;40.30;17.06;96977.38;6298600;28;19924;-65
2022/07/08 11:38:35;;;;;;;;;;;;;;;40.52;16.90;96969.44;6298314;28;20413;-65
2022/07/08 11:41:41;;;;;;;;;;;;;;;40.14;16.98;96962.84;6298459;28;19946;-65
2022/07/08 11:44:44;;;;;;;;;;;;;;;39.54;17.47;96971.19;6297157;28;20294;-65
2022/07/08 11:47:50;;;;;;;;;;;;;;;38.77;18.11;96968.69;6297989;28;19924;-65
2022/07/08 11:50:54;;;;;;;;;;;;;;;38.67;18.09;96968.72;6297798;28;19924;-66
2022/07/08 11:53:58;;;;;;;;;;;;;;;37.74;18.85;96961.50;6298039;28;19925;-65
2022/07/08 11:57:02;;;;;;;;;;;;;;;36.62;19.55;96957.09;6297906;28;19928;-65
2022/07/08 12:00:06;;;;;;;;;;;;;;;35.57;20.87;96950.41;6297863;28;20393;-66
2022/07/08 12:03:10;;;;;;;;;;;;;;;34.72;21.69;96952.56;6279639;28;19924;-64
2022/07/08 12:06:14;;;;;;;;;;;;;;;34.10;22.33;96958.97;6297512;28;19928;-66
2022/07/08 12:09:22;;;;;;;;;;;;;;;33.63;22.93;96964.66;6297075;28;19928;-65
2022/07/08 12:12:28;;;;;;;;;;;;;;;33.36;23.12;96965.19;6297311;28;19924;-65
2022/07/08 12:15:35;;;;;;;;;;;;;;;33.05;23.63;96964.56;6297640;28;20015;-65
2022/07/08 12:18:41;;;;;;;;;;;;;;;32.60;24.11;96954.28;6297202;28;20008;-65
2022/07/08 12:21:45;;;;;;;;;;;;;;;31.85;24.87;96944.00;6297063;28;19969;-65
2022/07/08 12:24:49;;;;;;;;;;;;;;;31.09;26.03;96953.59;6297417;28;20073;-65
2022/07/08 12:27:56;;;;;;;;;;;;;;;30.51;26.69;96949.38;6296872;28;19924;-65
2022/07/08 12:31:00;;;;;;;;;;;;;;;30.01;26.77;96937.69;6296905;28;19924;-64
2022/07/08 12:34:04;;;;;;;;;;;;;;;29.52;27.71;96927.38;6296149;28;19924;-65
2022/07/08 12:37:15;;;;;;;;;;;;;;;29.13;28.28;96927.59;6296653;28;19924;-64
2022/07/08 12:40:18;;;;;;;;;;;;;;;28.71;28.62;96927.13;6296866;28;19925;-64
2022/07/08 12:43:31;;;;;;;;;;;;;;;28.36;30.36;96916.53;6296491;28;19932;-65
2022/07/08 12:46:33;;;;;;;;;;;;;;;28.55;28.83;96912.97;6296457;28;19924;-65
2022/07/08 12:49:41;;;;;;;;;;;;;;;29.34;27.46;96916.44;6296021;28;19924;-64
2022/07/08 12:52:44;;;;;;;;;;;;;;;30.17;27.01;96918.97;6296433;28;19924;-65
2022/07/08 12:55:48;;;;;;;;;;;;;;;30.77;26.59;96915.69;6296176;28;19925;-65
2022/07/08 12:58:52;;;;;;;;;;;;;;;31.00;26.29;96915.03;6296319;28;19924;-64
2022/07/08 13:01:57;;;;;;;;;;;;;;;30.93;26.63;96908.00;6296148;28;20306;-65
2022/07/08 13:05:00;;;;;;;;;;;;;;;30.99;26.76;96904.38;6295979;28;20037;-65
2022/07/08 13:08:04;;;;;;;;;;;;;;;30.79;27.83;96912.75;6295988;28;19924;-64
2022/07/08 13:11:08;;;;;;;;;;;;;;;30.25;28.50;96917.91;6296142;28;19929;-64
2022/07/08 13:14:11;;;;;;;;;;;;;;;29.90;28.70;96910.25;6296190;28;19925;-66
2022/07/08 13:17:15;;;;;;;;;;;;;;;30.17;28.83;96920.88;6295882;28;19920;-65
2022/07/08 13:20:20;;;;;;;;;;;;;;;30.32;28.86;96934.97;6296319;28;19924;-65
2022/07/08 13:23:24;;;;;;;;;;;;;;;30.27;29.19;96940.22;6295794;28;19920;-65
2022/07/08 13:26:33;;;;;;;;;;;;;;;30.15;28.91;96940.09;6295723;28;19932;-65
2022/07/08 13:29:37;;;;;;;;;;;;;;;29.80;29.48;96937.03;6295632;28;20313;-65
2022/07/08 13:32:41;;;;;;;;;;;;;;;29.86;29.06;96930.72;6295555;28;20270;-65
2022/07/08 13:35:45;;;;;;;;;;;;;;;30.16;28.72;96924.63;6295615;28;19924;-65
2022/07/08 13:38:49;;;;;;;;;;;;;;;30.28;28.52;96927.47;6295584;28;19924;-65
2022/07/08 13:41:51;;;;;;;;;;;;;;;30.22;28.69;96929.19;6295570;28;19924;-66
2022/07/08 13:44:55;;;;;;;;;;;;;;;30.07;28.69;96928.69;6295157;28;19925;-65
2022/07/08 13:47:57;;;;;;;;;;;;;;;29.79;28.84;96929.94;6295221;28;19928;-65
2022/07/08 13:51:01;;;;;;;;;;;;;;;29.36;29.31;96925.19;6295357;28;19924;-65
2022/07/08 13:54:04;;;;;;;;;;;;;;;29.03;29.77;96928.88;6295384;28;19925;-65
2022/07/08 13:57:07;;;;;;;;;;;;;;;28.80;30.13;96931.25;6276876;28;19924;-65
2022/07/08 14:00:10;;;;;;;;;;;;;;;28.65;30.17;96943.16;6295173;28;19924;-66
2022/07/08 14:03:15;;;;;;;;;;;;;;;28.44;30.25;96932.56;6277579;28;19924;-65
2022/07/08 14:06:18;;;;;;;;;;;;;;;28.19;30.48;96940.47;6276726;28;19924;-65
2022/07/08 14:09:22;;;;;;;;;;;;;;;27.96;30.93;96943.63;6276937;28;19931;-66
2022/07/08 14:12:28;;;;;;;;;;;;;;;27.60;31.56;96958.31;6277206;28;20317;-65
2022/07/08 14:15:31;;;;;;;;;;;;;;;27.45;31.53;96954.94;6294174;28;19924;-65
2022/07/08 14:18:35;;;;;;;;;;;;;;;27.41;31.40;96959.09;6294974;28;19924;-65
2022/07/08 14:21:38;;;;;;;;;;;;;;;27.39;31.57;96966.56;6294980;28;20305;-65
2022/07/08 14:24:42;;;;;;;;;;;;;;;27.41;31.36;96965.34;6293669;28;19924;-65
2022/07/08 14:27:46;;;;;;;;;;;;;;;27.49;31.49;96967.03;6293801;28;20031;-65
2022/07/08 14:30:50;;;;;;;;;;;;;;;27.44;31.96;96964.94;6294839;28;19924;-65
2022/07/08 14:33:54;;;;;;;;;;;;;;;27.38;32.04;96967.63;6294962;28;19924;-65
2022/07/08 14:36:57;;;;;;;;;;;;;;;27.34;32.74;96969.06;6294828;28;19925;-65
2022/07/08 14:40:00;;;;;;;;;;;;;;;27.28;32.80;96966.13;6293796;28;19925;-65
2022/07/08 14:43:02;;;;;;;;;;;;;;;27.21;32.61;96962.56;6294681;28;19964;-65
2022/07/08 14:46:11;;;;;;;;;;;;;;;27.18;35.99;96960.28;6295230;28;19924;-65
2022/07/08 14:49:14;;;;;;;;;;;;;;;27.26;33.18;96961.94;6294867;28;19924;-65
2022/07/08 14:52:18;;;;;;;;;;;;;;;27.44;32.86;96961.41;6294644;28;19929;-67
2022/07/08 14:55:27;;;;;;;;;;;;;;;27.60;33.20;96952.91;6293934;28;20318;-66
2022/07/08 14:58:30;;;;;;;;;;;;;;;27.77;32.85;96959.59;6299359;28;19925;-65
2022/07/08 15:01:34;;;;;;;;;;;;;;;27.81;33.52;96961.91;6297756;28;19972;-65
2022/07/08 15:04:37;;;;;;;;;;;;;;;27.66;34.13;96973.72;6299237;28;19928;-66
2022/07/08 15:07:40;;;;;;;;;;;;;;;27.20;35.22;96979.78;6298024;28;19924;-65
2022/07/08 15:10:44;;;;;;;;;;;;;;;26.51;39.14;96979.84;6299392;28;19928;-65
2022/07/08 15:13:47;;;;;;;;;;;;;;;26.40;41.06;96984.69;6298877;28;19924;-66
2022/07/08 15:16:52;;;;;;;;;;;;;;;26.04;39.48;96978.59;6280798;28;19925;-64
2022/07/08 15:19:56;;;;;;;;;;;;;;;25.62;40.19;96985.63;6299004;28;20298;-65
2022/07/08 15:23:00;;;;;;;;;;;;;;;25.26;41.25;96991.88;6298942;28;19924;-65
2022/07/08 15:26:09;;;;;;;;;;;;;;;24.77;42.28;96987.06;6298567;28;19928;-66
2022/07/08 15:29:12;;;;;;;;;;;;;;;24.35;43.35;96988.53;6298324;28;19928;-65
2022/07/08 15:32:16;;;;;;;;;;;;;;;23.90;43.37;96984.88;6298323;28;19936;-65
2022/07/08 15:35:20;;;;;;;;;;;;;;;23.74;43.54;96983.97;6298453;28;19925;-65
2022/07/08 15:38:24;;;;;;;;;;;;;;;23.68;43.29;96979.28;6298136;28;19931;-64
2022/07/08 15:41:28;;;;;;;;;;;;;;;23.65;42.73;96979.66;6298318;28;19925;-65
2022/07/08 15:44:32;;;;;;;;;;;;;;;23.64;42.99;96986.06;6298320;28;19929;-66
2022/07/08 15:47:35;;;;;;;;;;;;;;;23.62;42.42;96993.44;6298370;28;19924;-66
2022/07/08 15:50:38;;;;;;;;;;;;;;;23.56;42.88;96986.13;6297040;28;19932;-66
2022/07/08 15:53:40;;;;;;;;;;;;;;;23.44;42.43;96991.06;6298062;28;19924;-65
2022/07/08 15:56:46;;;;;;;;;;;;;;;23.33;42.79;96996.84;6297979;28;19924;-66
2022/07/08 15:59:49;;;;;;;;;;;;;;;23.25;42.85;96996.88;6298069;28;20385;-65
2022/07/08 16:02:52;;;;;;;;;;;;;;;23.18;43.57;96999.41;6280044;28;19925;-65
2022/07/08 16:05:58;;;;;;;;;;;;;;;23.09;44.01;97003.97;6298114;28;19929;-66